createdAt,value
2022-12-03T00:01:58.733Z,65036.22
2022-12-03T00:04:25.762Z,65036.22
2022-12-03T00:06:52.885Z,65036.22
2022-12-03T00:09:20.089Z,65036.22
2022-12-03T00:11:47.136Z,65036.22
2022-12-03T00:14:14.133Z,65036.22
2022-12-03T00:16:41.153Z,65036.22
2022-12-03T00:19:08.320Z,65036.22
2022-12-03T00:21:35.482Z,65036.22
2022-12-03T00:24:02.467Z,65036.22
2022-12-03T00:26:29.485Z,65036.22
2022-12-03T00:28:57.746Z,65036.22
2022-12-03T00:31:25.575Z,65036.22
2022-12-03T00:33:53.224Z,65036.22
2022-12-03T00:36:20.583Z,65036.22
2022-12-03T00:38:47.728Z,65036.22
2022-12-03T00:41:14.720Z,65036.22
2022-12-03T00:43:41.778Z,65036.22
2022-12-03T00:46:08.830Z,65036.22
2022-12-03T00:48:35.917Z,65036.22
2022-12-03T00:51:02.930Z,65036.22
2022-12-03T00:53:29.953Z,65036.22
2022-12-03T00:55:56.929Z,65036.22
2022-12-03T00:58:24.047Z,65036.22
2022-12-03T01:00:51.015Z,65036.22
2022-12-03T01:03:17.972Z,65036.22
2022-12-03T01:05:45.014Z,65036.22
2022-12-03T01:08:12.171Z,65036.22
2022-12-03T01:10:39.353Z,65036.22
2022-12-03T01:13:06.321Z,65036.22
2022-12-03T01:15:33.451Z,65036.22
2022-12-03T01:18:00.550Z,65036.22
2022-12-03T01:20:27.851Z,65036.22
2022-12-03T01:22:54.825Z,65036.22
2022-12-03T01:25:22.108Z,65036.22
2022-12-03T01:27:49.165Z,65036.22
2022-12-03T01:30:16.351Z,65036.22
2022-12-03T01:32:43.312Z,65036.22
2022-12-03T01:35:10.430Z,65036.22
2022-12-03T01:37:37.462Z,65036.22
2022-12-03T01:40:07.058Z,65036.22
2022-12-03T01:42:37.398Z,65036.22
2022-12-03T01:45:05.698Z,65036.22
2022-12-03T01:47:35.541Z,65036.22
2022-12-03T01:50:40.987Z,65036.22
2022-12-03T01:53:12.239Z,65036.22
2022-12-03T01:55:39.397Z,65036.22
2022-12-03T01:58:06.459Z,65036.22
2022-12-03T02:00:33.540Z,65036.22
2022-12-03T02:03:03.006Z,65036.22
2022-12-03T02:05:34.139Z,65036.22
2022-12-03T02:08:01.837Z,65036.22
2022-12-03T02:10:36.345Z,65036.22
2022-12-03T02:13:11.035Z,65036.22
2022-12-03T02:15:41.215Z,65036.22
2022-12-03T02:18:09.727Z,65036.22
2022-12-03T02:20:58.149Z,65036.22
2022-12-03T02:24:16.584Z,65036.22
2022-12-03T02:26:43.670Z,65036.22
2022-12-03T02:29:11.224Z,65036.22
2022-12-03T02:31:38.368Z,65036.22
2022-12-03T02:34:07.775Z,65036.22
2022-12-03T02:36:36.594Z,65036.22
2022-12-03T02:39:05.103Z,65036.22
2022-12-03T02:41:50.923Z,65036.22
2022-12-03T02:44:17.998Z,65036.22
2022-12-03T02:46:44.994Z,65036.22
2022-12-03T02:49:12.038Z,65036.22
2022-12-03T02:51:39.993Z,65036.22
2022-12-03T02:54:07.020Z,65036.22
2022-12-03T02:56:34.096Z,65036.22
2022-12-03T02:59:04.490Z,65036.22
2022-12-03T03:01:32.004Z,65036.22
2022-12-03T03:03:59.583Z,65036.22
2022-12-03T03:06:26.688Z,65036.22
2022-12-03T03:08:53.671Z,65036.22
2022-12-03T03:11:20.807Z,65036.22
2022-12-03T03:13:47.945Z,65036.22
2022-12-03T03:16:15.101Z,65036.22
2022-12-03T03:18:42.410Z,65036.22
2022-12-03T03:21:09.657Z,65036.22
2022-12-03T03:23:36.723Z,65036.22
2022-12-03T03:26:08.196Z,65036.22
2022-12-03T03:28:39.359Z,65036.22
2022-12-03T03:31:08.823Z,65036.22
2022-12-03T03:33:38.265Z,65036.22
2022-12-03T03:36:06.696Z,65036.22
2022-12-03T03:38:34.724Z,65036.22
2022-12-03T03:41:04.103Z,65036.22
2022-12-03T03:43:34.823Z,65036.22
2022-12-03T03:46:04.213Z,65036.22
2022-12-03T03:48:32.033Z,65036.22
2022-12-03T03:50:58.999Z,65036.22
2022-12-03T03:53:26.450Z,65036.22
2022-12-03T03:55:53.588Z,65036.22
2022-12-03T03:58:22.167Z,65036.22
2022-12-03T04:00:49.152Z,65036.22
2022-12-03T04:03:16.186Z,65036.22
2022-12-03T04:05:43.209Z,65036.22
2022-12-03T04:08:10.240Z,65036.22
2022-12-03T04:10:55.981Z,65036.22
2022-12-03T04:13:23.578Z,65036.22
2022-12-03T04:15:50.833Z,65036.22
2022-12-03T04:18:36.194Z,65036.22
2022-12-03T04:21:21.535Z,65036.22
2022-12-03T04:23:48.529Z,65036.22
2022-12-03T04:26:34.015Z,65036.22
2022-12-03T04:29:02.226Z,65036.22
2022-12-03T04:31:48.126Z,65036.22
2022-12-03T04:34:33.949Z,65036.22
2022-12-03T04:37:00.905Z,65036.22
2022-12-03T04:39:27.939Z,65036.22
2022-12-03T04:41:54.919Z,65036.22
2022-12-03T04:44:33.959Z,65036.22
2022-12-03T04:47:13.266Z,82676.50
2022-12-03T04:49:46.204Z,65036.22
2022-12-03T04:52:15.910Z,65036.22
2022-12-03T04:54:43.716Z,65036.22
2022-12-03T04:57:11.835Z,82797.78
2022-12-03T04:59:39.553Z,82786.78
2022-12-03T05:02:07.320Z,65036.22
2022-12-03T05:04:34.720Z,65036.22
2022-12-03T05:07:02.224Z,65036.22
2022-12-03T05:09:29.376Z,65036.22
2022-12-03T05:11:56.395Z,65036.22
2022-12-03T05:14:23.407Z,65036.22
2022-12-03T05:16:50.456Z,65036.22
2022-12-03T05:19:18.709Z,65036.22
2022-12-03T05:21:45.709Z,65036.22
2022-12-03T05:24:12.759Z,65036.22
2022-12-03T05:26:39.665Z,65036.22
2022-12-03T05:29:06.651Z,65036.22
2022-12-03T05:31:33.623Z,65036.22
2022-12-03T05:34:00.589Z,65036.22
2022-12-03T05:36:27.640Z,65036.22
2022-12-03T05:38:54.603Z,65036.22
2022-12-03T05:41:40.169Z,65036.22
2022-12-03T05:44:07.109Z,65036.22
2022-12-03T05:46:34.254Z,65036.22
2022-12-03T05:49:01.336Z,65036.22
2022-12-03T05:51:28.470Z,65036.22
2022-12-03T05:53:55.402Z,65036.22
2022-12-03T05:56:22.424Z,65036.22
2022-12-03T05:58:49.399Z,65036.22
2022-12-03T06:01:16.696Z,65036.22
2022-12-03T06:03:43.764Z,65036.22
2022-12-03T06:06:10.894Z,65036.22
2022-12-03T06:08:37.841Z,65036.22
2022-12-03T06:11:04.961Z,65036.22
2022-12-03T06:13:31.994Z,65036.22
2022-12-03T06:15:59.243Z,65036.22
2022-12-03T06:18:26.321Z,65036.22
2022-12-03T06:20:53.340Z,65036.22
2022-12-03T06:23:20.387Z,65036.22
2022-12-03T06:25:47.353Z,65036.22
2022-12-03T06:28:14.412Z,65036.22
2022-12-03T06:30:41.412Z,65036.22
2022-12-03T06:33:08.468Z,65036.22
2022-12-03T06:35:35.617Z,65036.22
2022-12-03T06:38:02.685Z,65036.22
2022-12-03T06:40:29.736Z,65036.22
2022-12-03T06:42:56.768Z,65036.22
2022-12-03T06:45:23.758Z,65036.22
2022-12-03T06:47:50.735Z,65036.22
2022-12-03T06:50:17.815Z,65036.22
2022-12-03T06:52:44.873Z,65036.22
2022-12-03T06:55:11.869Z,65036.22
2022-12-03T06:57:38.868Z,65036.22
2022-12-03T07:00:09.003Z,65036.22
2022-12-03T07:02:36.539Z,65036.22
2022-12-03T07:05:04.449Z,65036.22
2022-12-03T07:07:31.624Z,65036.22
2022-12-03T07:09:58.822Z,65036.22
2022-12-03T07:12:25.827Z,65036.22
2022-12-03T07:14:53.038Z,65036.22
2022-12-03T07:17:20.366Z,65036.22
2022-12-03T07:19:47.315Z,65036.22
2022-12-03T07:22:14.378Z,65036.22
2022-12-03T07:24:41.396Z,65036.22
2022-12-03T07:27:08.446Z,65036.22
2022-12-03T07:29:35.479Z,65036.22
2022-12-03T07:32:02.499Z,65036.22
2022-12-03T07:34:29.566Z,65036.22
2022-12-03T07:36:56.653Z,65036.22
2022-12-03T07:39:23.612Z,65036.22
2022-12-03T07:41:50.643Z,65036.22
2022-12-03T07:44:17.583Z,65036.22
2022-12-03T07:46:44.644Z,65036.22
2022-12-03T07:49:12.442Z,65036.22
2022-12-03T07:51:39.592Z,65036.22
2022-12-03T07:54:06.591Z,65036.22
2022-12-03T07:56:33.840Z,65036.22
2022-12-03T07:59:00.874Z,65036.22
2022-12-03T08:01:27.926Z,65036.22
2022-12-03T08:03:55.113Z,65036.22
2022-12-03T08:06:22.062Z,65036.22
2022-12-03T08:08:49.357Z,65036.22
2022-12-03T08:11:16.386Z,65036.22
2022-12-03T08:13:43.532Z,65036.22
2022-12-03T08:16:20.140Z,65036.22
2022-12-03T08:18:49.037Z,65036.22
2022-12-03T08:21:19.668Z,65036.22
2022-12-03T08:23:46.993Z,65036.22
2022-12-03T08:26:24.520Z,65036.22
2022-12-03T08:28:53.385Z,65036.22
2022-12-03T08:31:32.312Z,65036.22
2022-12-03T08:34:15.986Z,65036.22
2022-12-03T08:36:43.358Z,65036.22
2022-12-03T08:39:29.826Z,65036.22
2022-12-03T08:42:31.187Z,65036.22
2022-12-03T08:45:29.543Z,65036.22
2022-12-03T08:48:10.947Z,65036.22
2022-12-03T08:50:41.726Z,65036.22
2022-12-03T08:53:22.584Z,65036.22
2022-12-03T08:55:54.165Z,65036.22
2022-12-03T08:58:41.696Z,65036.22
2022-12-03T09:01:11.615Z,65036.22
2022-12-03T09:03:48.560Z,65036.22
2022-12-03T09:06:15.642Z,65036.22
2022-12-03T09:08:42.748Z,65036.22
2022-12-03T09:11:09.779Z,65036.22
2022-12-03T09:13:36.832Z,65036.22
2022-12-03T09:16:04.084Z,65036.22
2022-12-03T09:18:31.264Z,65036.22
2022-12-03T09:20:58.435Z,65036.22
2022-12-03T09:23:25.485Z,65036.22
2022-12-03T09:25:52.489Z,65036.22
2022-12-03T09:28:19.744Z,65036.22
2022-12-03T09:30:46.793Z,65036.22
2022-12-03T09:33:14.096Z,65036.22
2022-12-03T09:35:41.092Z,65036.22
2022-12-03T09:38:08.138Z,65036.22
2022-12-03T09:40:35.198Z,65036.22
2022-12-03T09:43:02.446Z,65036.22
2022-12-03T09:45:29.493Z,65036.22
2022-12-03T09:47:56.695Z,65036.22
2022-12-03T09:50:26.898Z,65036.22
2022-12-03T09:52:57.600Z,65036.22
2022-12-03T09:55:27.337Z,65036.22
2022-12-03T09:57:56.596Z,65036.22
2022-12-03T10:00:28.717Z,65036.22
2022-12-03T10:03:02.515Z,65036.22
2022-12-03T10:05:30.270Z,65036.22
2022-12-03T10:08:12.803Z,65036.22
2022-12-03T10:10:42.033Z,65036.22
2022-12-03T10:13:23.906Z,65036.22
2022-12-03T10:15:56.371Z,65036.22
2022-12-03T10:18:30.725Z,65036.22
2022-12-03T10:20:58.465Z,65036.22
2022-12-03T10:23:29.267Z,65036.22
2022-12-03T10:26:03.683Z,65036.22
2022-12-03T10:28:40.523Z,65036.22
2022-12-03T10:31:11.444Z,65036.22
2022-12-03T10:33:47.525Z,65036.22
2022-12-03T10:36:26.473Z,65036.22
2022-12-03T10:39:09.538Z,65036.22
2022-12-03T10:41:38.414Z,65036.22
2022-12-03T10:44:25.611Z,65036.22
2022-12-03T10:47:11.824Z,65036.22
2022-12-03T10:49:40.437Z,65036.22
2022-12-03T10:52:25.706Z,65036.22
2022-12-03T10:54:53.558Z,65036.22
2022-12-03T10:57:20.844Z,65036.22
2022-12-03T10:59:47.915Z,65036.22
2022-12-03T11:02:22.005Z,65036.22
2022-12-03T11:04:50.626Z,65036.22
2022-12-03T11:07:22.540Z,65036.22
2022-12-03T11:09:52.556Z,65036.22
2022-12-03T11:12:27.466Z,65036.22
2022-12-03T11:14:55.030Z,65036.22
2022-12-03T11:17:53.277Z,65036.22
2022-12-03T11:20:26.185Z,65036.22
2022-12-03T11:22:55.362Z,65036.22
2022-12-03T11:25:48.062Z,65036.22
2022-12-03T11:28:15.025Z,65036.22
2022-12-03T11:30:53.839Z,65036.22
2022-12-03T11:33:40.889Z,65036.22
2022-12-03T11:36:13.013Z,65036.22
2022-12-03T11:38:54.632Z,65036.22
2022-12-03T11:41:35.087Z,65036.22
2022-12-03T11:44:31.260Z,65036.22
2022-12-03T11:47:00.513Z,65036.22
2022-12-03T11:49:37.960Z,65036.22
2022-12-03T11:52:22.805Z,65036.22
2022-12-03T11:54:55.413Z,65036.22
2022-12-03T11:57:37.885Z,65036.22
2022-12-03T12:00:18.253Z,65036.22
2022-12-03T12:02:45.937Z,65036.22
2022-12-03T12:05:21.713Z,65036.22
2022-12-03T12:07:50.106Z,65036.22
2022-12-03T12:10:56.223Z,65036.22
2022-12-03T12:13:25.766Z,65036.22
2022-12-03T12:15:53.088Z,65036.22
2022-12-03T12:18:41.562Z,65036.22
2022-12-03T12:21:47.595Z,65036.22
2022-12-03T12:24:46.441Z,65036.22
2022-12-03T12:27:45.038Z,65036.22
2022-12-03T12:30:18.543Z,65036.22
2022-12-03T12:32:58.605Z,65036.22
2022-12-03T12:35:32.592Z,65036.22
2022-12-03T12:38:10.926Z,65036.22
2022-12-03T12:40:41.348Z,65036.22
2022-12-03T12:43:15.234Z,65036.22
2022-12-03T12:45:45.470Z,65036.22
2022-12-03T12:48:23.085Z,65036.22
2022-12-03T12:51:11.112Z,65036.22
2022-12-03T12:53:40.623Z,65036.22
2022-12-03T12:56:16.002Z,65036.22
2022-12-03T12:58:43.132Z,65036.22
2022-12-03T13:01:31.246Z,65036.22
2022-12-03T13:03:59.655Z,65036.22
2022-12-03T13:06:31.088Z,65036.22
2022-12-03T13:09:01.220Z,65036.22
2022-12-03T13:11:42.312Z,65036.22
2022-12-03T13:14:22.734Z,65036.22
2022-12-03T13:16:53.091Z,65036.22
2022-12-03T13:19:43.596Z,65036.22
2022-12-03T13:22:23.044Z,65036.22
2022-12-03T13:24:53.473Z,65036.22
2022-12-03T13:27:20.474Z,65036.22
2022-12-03T13:30:16.073Z,65036.22
2022-12-03T13:32:44.365Z,65036.22
2022-12-03T13:35:24.556Z,65036.22
2022-12-03T13:37:51.550Z,65036.22
2022-12-03T13:40:27.340Z,65036.22
2022-12-03T13:42:55.204Z,65036.22
2022-12-03T13:45:25.788Z,65036.22
2022-12-03T13:47:59.526Z,65036.22
2022-12-03T13:50:43.974Z,65036.22
2022-12-03T13:53:24.194Z,65036.22
2022-12-03T13:56:00.918Z,65036.22
2022-12-03T13:58:27.883Z,65036.22
2022-12-03T14:00:54.966Z,65036.22
2022-12-03T14:03:23.363Z,65036.22
2022-12-03T14:05:50.392Z,65036.22
2022-12-03T14:08:17.682Z,65036.22
2022-12-03T14:10:44.760Z,65036.22
2022-12-03T14:13:11.895Z,65036.22
2022-12-03T14:15:38.837Z,65036.22
2022-12-03T14:18:05.849Z,65036.22
2022-12-03T14:20:34.976Z,65036.22
2022-12-03T14:23:02.308Z,65036.22
2022-12-03T14:25:29.273Z,65036.22
2022-12-03T14:27:56.361Z,65036.22
2022-12-03T14:30:23.408Z,65036.22
2022-12-03T14:32:54.020Z,65036.22
2022-12-03T14:35:21.014Z,65036.22
2022-12-03T14:37:47.970Z,65036.22
2022-12-03T14:40:19.733Z,65036.22
2022-12-03T14:42:48.377Z,65036.22
2022-12-03T14:45:15.403Z,65036.22
2022-12-03T14:47:42.573Z,65036.22
2022-12-03T14:50:14.289Z,65036.22
2022-12-03T14:52:41.688Z,65036.22
2022-12-03T14:55:09.061Z,65036.22
2022-12-03T14:57:36.065Z,65036.22
2022-12-03T15:00:04.127Z,65036.22
2022-12-03T15:02:31.979Z,65036.22
2022-12-03T15:04:59.003Z,65036.22
2022-12-03T15:07:26.049Z,65036.22
2022-12-03T15:09:53.466Z,65036.22
2022-12-03T15:12:20.820Z,65036.22
2022-12-03T15:14:47.787Z,65036.22
2022-12-03T15:17:14.982Z,65036.22
2022-12-03T15:19:42.058Z,65036.22
2022-12-03T15:22:09.001Z,65036.22
2022-12-03T15:24:35.982Z,65036.22
2022-12-03T15:27:03.008Z,65036.22
2022-12-03T15:29:30.439Z,65036.22
2022-12-03T15:31:59.348Z,65036.22
2022-12-03T15:34:27.161Z,65036.22
2022-12-03T15:36:54.105Z,65036.22
2022-12-03T15:39:21.217Z,65036.22
2022-12-03T15:41:48.767Z,65036.22
2022-12-03T15:44:15.744Z,65036.22
2022-12-03T15:46:42.775Z,65036.22
2022-12-03T15:49:09.861Z,65036.22
2022-12-03T15:51:36.891Z,65036.22
2022-12-03T15:54:03.998Z,65036.22
2022-12-03T15:56:30.992Z,65036.22
2022-12-03T15:58:57.931Z,65036.22
2022-12-03T16:01:25.225Z,65036.22
2022-12-03T16:03:52.328Z,65036.22
2022-12-03T16:06:19.717Z,65036.22
2022-12-03T16:08:46.715Z,65036.22
2022-12-03T16:11:14.079Z,65036.22
2022-12-03T16:13:41.069Z,65036.22
2022-12-03T16:16:08.974Z,65036.22
2022-12-03T16:18:35.980Z,65036.22
2022-12-03T16:21:03.063Z,65036.22
2022-12-03T16:23:30.011Z,65036.22
2022-12-03T16:25:57.060Z,65036.22
2022-12-03T16:28:24.112Z,65036.22
2022-12-03T16:30:51.157Z,65036.22
2022-12-03T16:33:22.518Z,65036.22
2022-12-03T16:35:52.720Z,65036.22
2022-12-03T16:38:43.353Z,65036.22
2022-12-03T16:41:10.354Z,65036.22
2022-12-03T16:43:38.915Z,65036.22
2022-12-03T16:46:15.482Z,65036.22
2022-12-03T16:48:42.904Z,65036.22
2022-12-03T16:51:10.650Z,65036.22
2022-12-03T16:53:37.782Z,65036.22
2022-12-03T16:56:05.021Z,65036.22
2022-12-03T16:58:31.999Z,65036.22
2022-12-03T17:00:59.035Z,65036.22
2022-12-03T17:03:32.015Z,65036.22
2022-12-03T17:06:00.995Z,65036.22
2022-12-03T17:08:28.283Z,65036.22
2022-12-03T17:10:55.541Z,65036.22
2022-12-03T17:13:25.688Z,65036.22
2022-12-03T17:15:52.857Z,65036.22
2022-12-03T17:18:19.902Z,65036.22
2022-12-03T17:20:46.844Z,65036.22
2022-12-03T17:23:13.955Z,65036.22
2022-12-03T17:25:40.955Z,65036.22
2022-12-03T17:28:07.939Z,65036.22
2022-12-03T17:30:35.234Z,65036.22
2022-12-03T17:33:02.405Z,65036.22
2022-12-03T17:35:29.478Z,65036.22
2022-12-03T17:37:56.549Z,65036.22
2022-12-03T17:40:23.640Z,65036.22
2022-12-03T17:42:50.869Z,65036.22
2022-12-03T17:45:18.448Z,65036.22
2022-12-03T17:47:45.433Z,65036.22
2022-12-03T17:50:12.811Z,65036.22
2022-12-03T17:52:39.892Z,65036.22
2022-12-03T17:55:13.135Z,65036.22
2022-12-03T17:57:43.233Z,65036.22
2022-12-03T18:00:11.144Z,65036.22
2022-12-03T18:02:38.187Z,65036.22
2022-12-03T18:05:05.742Z,65036.22
2022-12-03T18:07:32.987Z,65036.22
2022-12-03T18:10:00.011Z,65036.22
2022-12-03T18:12:27.032Z,65036.22
2022-12-03T18:14:54.032Z,65036.22
2022-12-03T18:17:20.991Z,65036.22
2022-12-03T18:19:48.077Z,65036.22
2022-12-03T18:22:15.131Z,65036.22
2022-12-03T18:24:44.891Z,65036.22
2022-12-03T18:27:12.569Z,65036.22
2022-12-03T18:29:39.568Z,65036.22
2022-12-03T18:32:27.067Z,65036.22
2022-12-03T18:34:55.823Z,65036.22
2022-12-03T18:37:26.688Z,65036.22
2022-12-03T18:39:54.428Z,65036.22
2022-12-03T18:42:23.633Z,65036.22
2022-12-03T18:44:55.081Z,65036.22
2022-12-03T18:47:27.472Z,65036.22
2022-12-03T18:49:55.779Z,65036.22
2022-12-03T18:52:25.161Z,65036.22
2022-12-03T18:54:52.474Z,65036.22
2022-12-03T18:57:19.484Z,65036.22
2022-12-03T18:59:46.503Z,65036.22
2022-12-03T19:02:46.069Z,65036.22
2022-12-03T19:05:07.625Z,65036.22
2022-12-03T19:07:34.856Z,65036.22
2022-12-03T19:10:01.931Z,65036.22
2022-12-03T19:12:29.030Z,65036.22
2022-12-03T19:14:55.988Z,65036.22
2022-12-03T19:17:23.045Z,65036.22
2022-12-03T19:19:49.980Z,65036.22
2022-12-03T19:22:16.972Z,65036.22
2022-12-03T19:24:43.960Z,65036.22
2022-12-03T19:27:11.061Z,65036.22
2022-12-03T19:29:38.441Z,65036.22
2022-12-03T19:32:05.686Z,65036.22
2022-12-03T19:34:32.815Z,65036.22
2022-12-03T19:36:59.791Z,65036.22
2022-12-03T19:39:26.860Z,65036.22
2022-12-03T19:41:53.800Z,65036.22
2022-12-03T19:44:20.822Z,65036.22
2022-12-03T19:46:49.951Z,65036.22
2022-12-03T19:49:18.713Z,65036.22
2022-12-03T19:51:45.717Z,65036.22
2022-12-03T19:54:13.150Z,65036.22
2022-12-03T19:56:40.392Z,65036.22
2022-12-03T19:59:07.932Z,65036.22
2022-12-03T20:01:36.361Z,65036.22
2022-12-03T20:04:04.231Z,65036.22
2022-12-03T20:06:34.817Z,65036.22
2022-12-03T20:09:11.416Z,65036.22
2022-12-03T20:11:40.698Z,65036.22
2022-12-03T20:14:15.910Z,65036.22
2022-12-03T20:16:44.512Z,65036.22
2022-12-03T20:19:14.313Z,65036.22
2022-12-03T20:21:42.460Z,65036.22
2022-12-03T20:24:14.878Z,65036.22
2022-12-03T20:26:42.378Z,65036.22
2022-12-03T20:29:09.351Z,65036.22
2022-12-03T20:31:36.395Z,65036.22
2022-12-03T20:34:04.367Z,65036.22
2022-12-03T20:36:32.339Z,65036.22
2022-12-03T20:39:02.872Z,65036.22
2022-12-03T20:44:33.715Z,65036.22
2022-12-03T20:47:16.489Z,65036.22
2022-12-03T20:49:46.855Z,65036.22
2022-12-03T22:10:11.629Z,65036.22
2022-12-03T22:12:40.934Z,65036.22
2022-12-03T22:15:14.875Z,65036.22
2022-12-03T22:17:45.313Z,65036.22
2022-12-03T22:20:12.952Z,65036.22
2022-12-03T22:22:39.938Z,65036.22
2022-12-03T22:25:07.669Z,65036.22
2022-12-03T22:27:34.811Z,65036.22
2022-12-03T22:30:02.806Z,65036.22
2022-12-03T22:32:29.877Z,65036.22
2022-12-03T22:34:57.040Z,101722.00
2022-12-03T22:37:24.048Z,101710.63
2022-12-03T22:39:50.991Z,101712.44
2022-12-03T22:42:18.081Z,101717.56
2022-12-03T22:44:45.125Z,101716.72
2022-12-03T22:47:12.179Z,65036.22
2022-12-03T22:49:39.136Z,101712.53
2022-12-03T22:52:06.179Z,101741.59
2022-12-03T22:54:33.195Z,65036.22
2022-12-03T22:57:00.220Z,65036.22
2022-12-03T22:59:27.189Z,65036.22
2022-12-03T23:01:54.204Z,65036.22
2022-12-03T23:04:21.222Z,65036.22
2022-12-03T23:06:48.265Z,65036.22
2022-12-03T23:09:15.313Z,65036.22
2022-12-03T23:11:45.402Z,65036.22
2022-12-03T23:14:13.092Z,65036.22
2022-12-03T23:16:41.163Z,65036.22
2022-12-03T23:19:08.168Z,65036.22
2022-12-03T23:21:35.604Z,65036.22
2022-12-03T23:24:05.486Z,65036.22
2022-12-03T23:26:36.842Z,65036.22
2022-12-03T23:29:06.116Z,65036.22
2022-12-03T23:31:34.540Z,65036.22
2022-12-03T23:34:02.344Z,65036.22
2022-12-03T23:36:32.308Z,65036.22
2022-12-03T23:38:59.955Z,65036.22
2022-12-03T23:41:27.780Z,65036.22
2022-12-03T23:43:56.333Z,65036.22
2022-12-03T23:46:26.559Z,65036.22
2022-12-03T23:48:54.189Z,65036.22
2022-12-03T23:51:24.579Z,65036.22
2022-12-03T23:53:53.152Z,65036.22
2022-12-03T23:56:26.834Z,65036.22
2022-12-03T23:58:53.845Z,65036.22
